Time;durP1;ratioP1;P1;durP2;ratioP2;P2;SDS_P1;SDS_P2;PMS_P1;PMS_P2;Temp;Humidity;BMP_temperature;BMP_pressure;BME280_temperature;BME280_humidity;BME280_pressure;Samples;Min_cycle;Max_cycle;Signal;HPM_P1;HPM_P2
2022/01/28 00:01:48;;;;;;;13.27;2.87;;;;;;;4.21;79.71;101393.91;5023916;28;20202;-71
2022/01/28 00:04:16;;;;;;;12.87;1.93;;;;;;;4.17;79.53;101401.91;5024844;28;20289;-72
2022/01/28 00:06:43;;;;;;;11.20;1.30;;;;;;;4.18;79.47;101405.41;5026706;28;20214;-72
2022/01/28 00:09:10;;;;;;;7.63;1.70;;;;;;;4.17;79.75;101407.19;5026792;28;20217;-72
2022/01/28 00:11:37;;;;;;;11.57;2.43;;;;;;;4.15;80.18;101410.75;5025264;28;20199;-70
2022/01/28 00:14:15;;;;;;;12.53;3.17;;;;;;;4.17;79.61;101414.22;5026614;28;20228;-70
2022/01/28 00:17:10;;;;;;;16.40;3.40;;;;;;;4.15;79.64;101416.88;5026152;28;20214;-71
2022/01/28 00:36:46;;;;;;;9.47;1.87;;;;;;;4.10;80.65;101450.44;5022108;28;20213;-70
2022/01/28 00:39:13;;;;;;;8.27;1.60;;;;;;;4.10;80.10;101441.66;5025358;28;20338;-71
2022/01/28 00:41:39;;;;;;;10.93;2.50;;;;;;;4.09;80.11;101448.69;5028967;28;20206;-73
2022/01/28 00:44:06;;;;;;;8.73;2.03;;;;;;;4.07;80.63;101452.25;5029264;28;20229;-73
2022/01/28 00:46:34;;;;;;;12.10;1.90;;;;;;;4.06;80.38;101456.66;5028476;28;20676;-71
2022/01/28 00:49:00;;;;;;;9.57;2.23;;;;;;;4.04;80.98;101458.47;5029085;28;20229;-73
2022/01/28 00:51:27;;;;;;;12.90;1.83;;;;;;;4.05;80.56;101454.94;5030703;28;20213;-72
2022/01/28 00:53:53;;;;;;;11.17;1.87;;;;;;;4.04;80.91;101465.50;5028153;28;20225;-72
2022/01/28 00:56:20;;;;;;;10.80;2.20;;;;;;;4.06;80.36;101472.47;5029824;28;20678;-74
2022/01/28 00:58:46;;;;;;;14.97;3.00;;;;;;;4.07;80.79;101465.44;5030709;28;20683;-72
2022/01/28 01:01:13;;;;;;;12.80;2.20;;;;;;;4.06;80.52;101475.13;5027446;28;20470;-72
2022/01/28 01:03:41;;;;;;;10.63;2.73;;;;;;;4.08;80.31;101477.72;5030113;28;20206;-72
2022/01/28 01:06:07;;;;;;;11.67;1.70;;;;;;;4.08;80.74;101472.44;5030617;28;20207;-70
2022/01/28 01:08:34;;;;;;;12.50;2.83;;;;;;;4.08;80.39;101480.34;5029781;28;20229;-72
2022/01/28 01:11:01;;;;;;;10.13;2.10;;;;;;;4.07;80.49;101484.75;5029869;28;20445;-72
2022/01/28 01:13:27;;;;;;;8.17;2.27;;;;;;;4.07;80.64;101470.72;5030496;28;20707;-71
2022/01/28 01:15:57;;;;;;;12.83;2.63;;;;;;;4.10;80.29;101475.91;5027407;28;20685;-72
2022/01/28 01:18:29;;;;;;;11.97;2.10;;;;;;;4.10;80.27;101483.84;5030128;28;20210;-72
2022/01/28 01:21:04;;;;;;;11.53;2.67;;;;;;;4.11;80.38;101489.06;5053857;22;20225;-83
2022/01/28 01:23:33;;;;;;;13.93;2.60;;;;;;;4.15;79.89;101506.53;5060191;28;20232;-80
2022/01/28 01:26:08;;;;;;;13.37;2.90;;;;;;;4.17;80.64;101514.41;5056699;28;20205;-83
2022/01/28 01:28:38;;;;;;;8.93;1.90;;;;;;;4.17;80.12;101507.34;5061525;28;20197;-80
2022/01/28 01:31:07;;;;;;;10.10;2.07;;;;;;;4.18;80.21;101517.00;5058860;28;20244;-83
2022/01/28 01:33:39;;;;;;;9.57;2.90;;;;;;;4.17;80.13;101519.66;5048153;28;20233;-81
2022/01/28 01:36:07;;;;;;;15.73;2.40;;;;;;;4.18;80.13;101522.28;5051583;28;20237;-81
2022/01/28 01:38:37;;;;;;;12.63;2.47;;;;;;;4.19;79.98;101518.75;5048234;28;20664;-82
2022/01/28 01:41:11;;;;;;;14.40;2.77;;;;;;;4.18;80.03;101527.56;5048908;28;20656;-82
2022/01/28 01:43:51;;;;;;;11.07;2.23;;;;;;;4.19;79.66;101529.28;5050802;28;20651;-82
2022/01/28 01:46:26;;;;;;;12.80;1.77;;;;;;;4.17;80.12;101540.75;5047167;28;20719;-81
2022/01/28 01:54:23;;;;;;;8.37;2.27;;;;;;;4.12;80.09;101551.41;5044756;28;20228;-81
2022/01/28 01:56:50;;;;;;;8.03;1.93;;;;;;;4.11;80.30;101546.19;5048350;28;20230;-81
2022/01/28 01:59:17;;;;;;;12.83;2.03;;;;;;;4.10;80.24;101552.38;5046165;28;20206;-81
2022/01/28 02:01:44;;;;;;;10.07;2.00;;;;;;;4.07;79.88;101545.41;5050284;28;20208;-82
2022/01/28 02:04:10;;;;;;;10.13;1.80;;;;;;;4.09;79.89;101542.72;5049577;28;20714;-82
2022/01/28 02:06:40;;;;;;;8.90;2.20;;;;;;;4.08;80.23;101541.84;5048636;22;20226;-69
2022/01/28 02:09:07;;;;;;;6.87;1.90;;;;;;;4.08;80.52;101535.72;5085806;28;20837;-70
2022/01/28 02:11:33;;;;;;;11.83;1.97;;;;;;;4.07;80.34;101533.97;5089743;28;20215;-71
2022/01/28 02:14:01;;;;;;;12.57;2.27;;;;;;;4.05;80.17;101548.97;5090896;28;20595;-71
2022/01/28 02:16:28;;;;;;;16.37;2.97;;;;;;;4.04;80.22;101552.50;5093845;28;20204;-71
2022/01/28 02:18:56;;;;;;;9.50;2.37;;;;;;;4.00;80.16;101559.59;5082172;28;20204;-71
2022/01/28 02:21:24;;;;;;;10.87;2.00;;;;;;;4.00;80.21;101567.50;5105380;22;20306;-70
2022/01/28 02:23:55;;;;;;;12.57;3.00;;;;;;;4.01;80.50;101573.63;5062224;28;20208;-70
2022/01/28 02:26:22;;;;;;;14.37;2.90;;;;;;;4.00;81.06;101575.41;5061546;28;20248;-71
2022/01/28 02:28:52;;;;;;;11.37;3.20;;;;;;;4.03;80.80;101572.72;5062937;28;20209;-71
2022/01/28 02:31:22;;;;;;;12.77;2.40;;;;;;;4.05;80.69;101573.56;5057163;28;20327;-70
2022/01/28 02:33:50;;;;;;;14.23;3.33;;;;;;;4.05;80.68;101577.97;5058949;28;20733;-70
2022/01/28 02:36:17;;;;;;;12.30;2.03;;;;;;;4.06;80.32;101583.19;5059763;28;20211;-70
2022/01/28 02:38:45;;;;;;;12.80;2.20;;;;;;;4.07;80.24;101573.53;5062402;28;20291;-70
2022/01/28 02:41:11;;;;;;;12.87;2.50;;;;;;;4.09;80.05;101577.88;5059046;28;22568;-70
2022/01/28 02:43:42;;;;;;;11.87;2.73;;;;;;;4.09;80.17;101588.41;5065621;28;20204;-70
2022/01/28 02:46:12;;;;;;;12.97;2.00;;;;;;;4.11;80.37;101594.50;5066942;28;20205;-71
2022/01/28 02:48:39;;;;;;;9.57;1.70;;;;;;;4.10;79.85;101595.41;5065169;28;20208;-71
2022/01/28 02:51:12;;;;;;;14.03;2.60;;;;;;;4.06;80.24;101604.28;5063893;28;20667;-71
2022/01/28 02:53:42;;;;;;;10.30;2.23;;;;;;;4.05;79.86;101597.28;5064400;28;20274;-71
2022/01/28 02:56:17;;;;;;;14.10;2.33;;;;;;;4.04;80.47;101615.75;5070105;28;20209;-70
2022/01/28 02:58:45;;;;;;;14.80;2.90;;;;;;;4.06;80.28;101608.69;5069650;28;20211;-70
2022/01/28 03:01:14;;;;;;;11.87;2.47;;;;;;;4.06;80.16;101614.81;5070211;28;20217;-70
2022/01/28 03:03:41;;;;;;;12.23;2.20;;;;;;;4.06;80.56;101614.81;5064648;28;20201;-70
2022/01/28 03:06:08;;;;;;;14.47;2.73;;;;;;;4.04;80.31;101608.72;5050306;28;20556;-70
2022/01/28 03:08:35;;;;;;;14.40;2.60;;;;;;;4.05;80.42;101626.28;5055908;28;20205;-70
2022/01/28 03:11:29;;;;;;;13.63;2.97;;;;;;;4.04;81.01;101621.91;5062121;28;20209;-71
2022/01/28 03:14:14;;;;;;;15.73;2.50;;;;;;;4.05;80.63;101609.59;5052165;28;20324;-70
2022/01/28 03:16:56;;;;;;;8.10;2.63;;;;;;;4.02;80.75;101612.28;5063626;28;20205;-71
2022/01/28 03:19:26;;;;;;;16.57;2.70;;;;;;;4.03;80.67;101620.16;5058310;28;20209;-70
2022/01/28 03:21:56;;;;;;;18.03;3.00;;;;;;;4.02;80.46;101615.78;5055242;28;20319;-70
2022/01/28 03:24:26;;;;;;;10.07;2.40;;;;;;;4.01;80.71;101621.97;5069889;28;20226;-71
2022/01/28 03:26:58;;;;;;;11.73;2.10;;;;;;;4.02;80.68;101636.00;5061732;28;20196;-70
2022/01/28 03:29:26;;;;;;;12.50;1.73;;;;;;;4.03;80.28;101629.84;5070168;28;20201;-70
2022/01/28 03:31:52;;;;;;;11.70;2.40;;;;;;;4.02;80.41;101633.38;5051430;28;20236;-70
2022/01/28 03:34:19;;;;;;;13.40;2.30;;;;;;;4.01;80.39;101643.03;5055386;28;20230;-70
2022/01/28 03:36:45;;;;;;;10.07;1.70;;;;;;;3.99;80.85;101647.47;5067081;28;20224;-70
2022/01/28 03:39:12;;;;;;;8.77;1.93;;;;;;;3.98;80.35;101648.38;5060738;28;20209;-71
2022/01/28 03:41:39;;;;;;;12.30;1.90;;;;;;;3.94;81.01;101646.69;5068183;28;20228;-71
2022/01/28 03:44:06;;;;;;;11.07;2.33;;;;;;;3.95;80.30;101663.38;5065456;28;20212;-71
2022/01/28 03:46:34;;;;;;;11.67;2.07;;;;;;;3.96;80.38;101671.25;5069352;28;20215;-70
2022/01/28 03:49:01;;;;;;;9.07;2.20;;;;;;;3.95;80.53;101655.47;5068251;28;20205;-70
2022/01/28 03:51:28;;;;;;;9.37;2.43;;;;;;;3.96;80.36;101663.34;5065926;28;20226;-70
2022/01/28 03:53:56;;;;;;;12.00;2.10;;;;;;;3.93;80.88;101668.69;5068384;28;20254;-70
2022/01/28 03:56:22;;;;;;;12.67;3.30;;;;;;;3.94;80.26;101672.22;5060160;28;20213;-70
2022/01/28 03:58:49;;;;;;;9.80;2.93;;;;;;;3.91;80.33;101667.00;5067595;28;20228;-70
2022/01/28 04:01:18;;;;;;;11.47;2.07;;;;;;;3.88;80.21;101673.19;5066415;28;20233;-70
2022/01/28 04:04:00;;;;;;;16.77;2.30;;;;;;;3.87;80.78;101676.72;5061520;28;20205;-70
2022/01/28 04:11:57;;;;;;;9.83;1.30;;;;;;;3.82;80.18;101697.88;5062513;28;20298;-71
2022/01/28 04:14:37;;;;;;;8.00;1.40;;;;;;;3.79;80.30;101690.03;5051407;28;20283;-70
2022/01/28 04:17:21;;;;;;;7.47;2.03;;;;;;;3.76;80.56;101705.03;5065992;28;20237;-70
2022/01/28 04:19:49;;;;;;;6.17;1.90;;;;;;;3.75;80.54;101696.28;5064303;28;20196;-72
2022/01/28 04:22:16;;;;;;;6.17;1.90;;;;;;;3.74;80.50;101693.66;5054979;28;20615;-70
2022/01/28 04:24:43;;;;;;;7.60;1.50;;;;;;;3.74;80.00;101696.31;5060297;28;20208;-69
2022/01/28 04:27:09;;;;;;;6.87;1.40;;;;;;;3.74;79.94;101712.97;5062327;28;20205;-71
2022/01/28 04:29:36;;;;;;;11.37;1.90;;;;;;;3.72;80.46;101712.13;5066689;28;20208;-70
2022/01/28 04:32:03;;;;;;;7.57;1.70;;;;;;;3.69;80.29;101708.69;5068298;28;20240;-69
2022/01/28 04:34:30;;;;;;;6.77;1.40;;;;;;;3.66;80.29;101721.91;5054351;28;20229;-70
2022/01/28 04:37:06;;;;;;;7.37;2.03;;;;;;;3.65;80.31;101721.03;5055263;28;20212;-70
2022/01/28 04:39:40;;;;;;;6.67;1.90;;;;;;;3.63;79.66;101719.31;5060490;28;20241;-70
2022/01/28 04:42:15;;;;;;;13.37;1.70;;;;;;;3.60;79.81;101722.00;5052196;28;20226;-69
2022/01/28 04:44:53;;;;;;;11.83;2.10;;;;;;;3.61;79.74;101713.19;5059747;28;20201;-69
2022/01/28 04:47:26;;;;;;;9.43;2.40;;;;;;;3.58;80.25;101718.56;5052829;28;20209;-70
2022/01/28 04:50:02;;;;;;;9.83;2.17;;;;;;;3.57;79.64;101725.59;5051417;28;20228;-69
2022/01/28 04:52:49;;;;;;;8.40;1.87;;;;;;;3.58;79.91;101737.00;5061974;28;20313;-69
2022/01/28 04:55:29;;;;;;;12.10;2.17;;;;;;;3.57;79.74;101735.25;5058977;28;20228;-70
2022/01/28 04:58:09;;;;;;;10.43;1.90;;;;;;;3.59;79.77;101741.34;5057650;28;20485;-69
2022/01/28 05:00:46;;;;;;;11.03;2.20;;;;;;;3.56;79.54;101738.78;5066606;28;20209;-69
2022/01/28 05:03:36;;;;;;;10.43;2.30;;;;;;;3.57;79.76;101746.66;5059829;28;20235;-69
2022/01/28 05:12:12;;;;;;;8.73;2.87;;;;;;;3.57;80.16;101770.38;5062748;28;20698;-70
2022/01/28 05:23:26;;;;;;;17.33;2.87;;;;;;;3.61;80.12;101779.06;5051210;28;20232;-71
2022/01/28 05:28:35;;;;;;;11.03;2.37;;;;;;;3.65;79.53;101772.84;5048042;28;20211;-70
2022/01/28 05:31:02;;;;;;;14.40;2.60;;;;;;;3.66;80.01;101777.22;5070470;28;20224;-70
2022/01/28 05:33:29;;;;;;;12.00;2.23;;;;;;;3.67;79.44;101778.97;5058902;28;20218;-69
2022/01/28 05:35:55;;;;;;;21.87;3.27;;;;;;;3.68;78.70;101781.56;5059854;28;20193;-69
2022/01/28 05:38:21;;;;;;;15.00;3.23;;;;;;;3.71;79.04;101786.81;5060887;28;20208;-69
2022/01/28 05:40:48;;;;;;;15.07;3.40;;;;;;;3.74;78.53;101780.59;5061562;28;20913;-70
2022/01/28 05:43:16;;;;;;;15.37;3.43;;;;;;;3.78;79.09;101785.78;5054998;28;20221;-72
2022/01/28 05:45:43;;;;;;;16.30;3.37;;;;;;;3.81;78.51;101801.53;5060686;28;20205;-71
2022/01/28 05:48:11;;;;;;;11.73;2.93;;;;;;;3.83;77.68;101804.16;5053869;28;20300;-69
2022/01/28 05:50:37;;;;;;;10.30;3.30;;;;;;;3.80;78.02;101814.75;5056277;28;20205;-69
2022/01/28 05:53:04;;;;;;;11.90;2.83;;;;;;;3.82;77.48;101815.59;5056666;28;20837;-69
2022/01/28 05:55:31;;;;;;;14.37;2.27;;;;;;;3.82;77.50;101819.09;5059601;28;20228;-70
2022/01/28 05:57:57;;;;;;;12.40;2.73;;;;;;;3.83;77.45;101822.59;5055824;28;20200;-69
2022/01/28 06:00:25;;;;;;;13.57;3.03;;;;;;;3.85;77.82;101818.19;5058569;28;20225;-69
2022/01/28 06:02:52;;;;;;;13.33;3.33;;;;;;;3.86;76.96;101819.91;5059867;28;20229;-71
2022/01/28 06:05:18;;;;;;;9.00;2.00;;;;;;;3.89;77.20;101830.41;5062490;28;20224;-72
2022/01/28 06:07:45;;;;;;;11.30;2.13;;;;;;;3.91;77.26;101844.44;5059968;28;20204;-69
2022/01/28 06:10:14;;;;;;;10.03;1.83;;;;;;;3.92;76.87;101877.81;5055241;28;20662;-69
2022/01/28 06:12:42;;;;;;;12.00;2.57;;;;;;;3.93;76.63;101871.63;5061216;28;20221;-70
2022/01/28 06:15:10;;;;;;;9.53;2.07;;;;;;;3.93;76.45;101879.53;5059588;28;20230;-69
2022/01/28 06:17:38;;;;;;;9.80;1.97;;;;;;;3.94;76.87;101875.97;5055361;28;20200;-70
2022/01/28 06:20:08;;;;;;;8.93;1.67;;;;;;;3.95;76.88;101876.84;5057820;28;20572;-70
2022/01/28 06:22:38;;;;;;;19.03;2.20;;;;;;;3.94;77.22;101889.16;5054859;28;20244;-71
2022/01/28 06:25:05;;;;;;;13.37;2.30;;;;;;;3.93;77.14;101895.38;5059608;28;20654;-70
2022/01/28 06:27:32;;;;;;;8.73;2.83;;;;;;;3.93;77.77;101884.81;5056269;28;20205;-68
2022/01/28 06:29:59;;;;;;;12.47;2.23;;;;;;;3.92;77.50;101888.34;5060924;28;20207;-69
2022/01/28 06:32:25;;;;;;;11.13;2.30;;;;;;;3.89;77.51;101901.56;5052724;28;20232;-70
2022/01/28 06:34:53;;;;;;;10.20;2.00;;;;;;;3.85;77.84;101897.22;5056656;28;20232;-72
2022/01/28 06:37:19;;;;;;;10.30;2.00;;;;;;;3.87;78.36;101908.63;5058469;28;20222;-70
2022/01/28 06:39:46;;;;;;;8.33;2.40;;;;;;;3.87;78.61;101916.53;5049628;28;20216;-70
2022/01/28 06:42:13;;;;;;;6.90;1.90;;;;;;;3.85;78.08;101920.94;5055227;28;20615;-71
2022/01/28 06:44:39;;;;;;;13.77;3.90;;;;;;;3.80;78.33;101920.13;5051359;28;20206;-71
2022/01/28 06:47:10;;;;;;;12.00;2.00;;;;;;;3.81;78.42;101924.53;5050748;28;20591;-70
2022/01/28 06:49:37;;;;;;;10.93;2.50;;;;;;;3.82;79.03;101928.91;5053522;28;20205;-70
2022/01/28 06:52:06;;;;;;;12.97;2.20;;;;;;;3.82;78.59;101931.53;5056498;28;20229;-70
2022/01/28 06:54:33;;;;;;;7.47;1.87;;;;;;;3.81;78.92;101938.56;5050869;28;20229;-70
2022/01/28 06:56:59;;;;;;;9.00;2.20;;;;;;;3.80;78.54;101938.59;5062437;28;20210;-70
2022/01/28 06:59:26;;;;;;;14.83;2.73;;;;;;;3.79;79.04;101952.66;5064529;28;20291;-71
2022/01/28 07:01:53;;;;;;;12.87;2.00;;;;;;;3.75;78.49;101949.22;5063301;28;20238;-70
2022/01/28 07:04:20;;;;;;;14.23;2.50;;;;;;;3.78;78.59;101945.63;5053891;28;20209;-70
2022/01/28 07:06:46;;;;;;;10.20;2.53;;;;;;;3.77;79.10;101949.16;5052512;28;20224;-70
2022/01/28 07:09:15;;;;;;;6.40;2.07;;;;;;;3.74;79.13;101965.06;5066784;28;20216;-70
2022/01/28 07:11:43;;;;;;;7.03;1.60;;;;;;;3.71;78.60;101960.69;5064056;28;20278;-71
2022/01/28 07:14:10;;;;;;;10.90;2.20;;;;;;;3.73;79.30;101968.56;5051112;28;20251;-70
2022/01/28 07:16:36;;;;;;;15.40;3.17;;;;;;;3.73;78.81;101977.34;5049752;28;20551;-70
2022/01/28 07:19:03;;;;;;;10.57;1.97;;;;;;;3.73;79.18;101987.03;5049312;28;20211;-70
2022/01/28 07:21:30;;;;;;;9.33;1.90;;;;;;;3.73;78.84;101984.38;5049816;28;20239;-71
2022/01/28 07:23:56;;;;;;;12.63;1.90;;;;;;;3.73;79.25;101984.38;5063443;28;20308;-70
2022/01/28 07:26:24;;;;;;;9.37;2.60;;;;;;;3.73;79.30;101979.13;5056772;28;20231;-71
2022/01/28 07:28:52;;;;;;;16.17;2.60;;;;;;;3.72;78.47;101972.09;5063255;28;20201;-70
2022/01/28 07:31:19;;;;;;;14.07;3.20;;;;;;;3.69;78.72;101987.94;5062650;28;20249;-70
2022/01/28 07:33:45;;;;;;;12.43;2.73;;;;;;;3.68;78.85;101992.34;5049869;28;20605;-70
2022/01/28 07:36:12;;;;;;;13.90;2.47;;;;;;;3.68;78.58;102004.66;5058917;28;20240;-70
2022/01/28 07:38:39;;;;;;;18.37;2.80;;;;;;;3.67;78.60;102002.91;5057164;28;20216;-70
2022/01/28 07:41:06;;;;;;;12.40;2.73;;;;;;;3.66;78.77;102001.16;5065830;28;20213;-71
2022/01/28 07:43:37;;;;;;;10.77;2.17;;;;;;;3.67;79.03;102018.72;5064953;28;20205;-69
2022/01/28 07:46:04;;;;;;;14.40;3.03;;;;;;;3.66;79.09;102009.94;5058459;28;20212;-70
2022/01/28 07:48:30;;;;;;;15.93;2.90;;;;;;;3.67;78.89;102006.41;5068502;28;20209;-70
2022/01/28 07:50:57;;;;;;;17.70;2.77;;;;;;;3.68;79.00;102015.19;5065212;28;20224;-71
2022/01/28 07:53:23;;;;;;;18.13;2.87;;;;;;;3.69;78.29;102003.75;5061094;28;20220;-70
2022/01/28 07:55:50;;;;;;;12.37;2.60;;;;;;;3.66;78.43;102006.41;5062285;28;20701;-71
2022/01/28 07:58:17;;;;;;;15.03;2.60;;;;;;;3.67;78.81;102011.69;5056945;28;20215;-70
2022/01/28 08:00:44;;;;;;;18.83;3.63;;;;;;;3.67;78.62;102010.81;5059365;28;20219;-70
2022/01/28 08:03:12;;;;;;;17.60;3.30;;;;;;;3.67;77.93;102019.56;5052360;28;20612;-70
2022/01/28 08:05:39;;;;;;;15.17;3.27;;;;;;;3.67;77.80;102016.94;5056156;28;20213;-70
2022/01/28 08:08:08;;;;;;;13.63;2.57;;;;;;;3.70;78.27;102029.22;5054963;28;20219;-70
2022/01/28 08:10:35;;;;;;;15.23;2.87;;;;;;;3.70;78.17;102031.84;5056075;28;20737;-71
2022/01/28 08:13:03;;;;;;;11.90;2.50;;;;;;;3.72;77.75;102035.34;5057662;28;20697;-70
2022/01/28 08:15:30;;;;;;;12.07;2.90;;;;;;;3.72;77.65;102036.22;5057458;28;20228;-70
2022/01/28 08:17:58;;;;;;;11.43;3.00;;;;;;;3.74;77.67;102041.47;5060259;28;20218;-70
2022/01/28 08:20:25;;;;;;;10.20;2.77;;;;;;;3.76;77.26;102044.94;5054714;28;20218;-70
2022/01/28 08:22:53;;;;;;;13.20;2.50;;;;;;;3.79;77.08;102047.53;5079412;22;20236;-74
2022/01/28 08:25:22;;;;;;;11.57;2.43;;;;;;;3.82;76.91;102055.38;5078546;28;20212;-73
2022/01/28 08:27:50;;;;;;;13.80;1.80;;;;;;;3.83;77.54;102057.13;5073517;28;20209;-73
2022/01/28 08:30:18;;;;;;;15.70;2.80;;;;;;;3.84;77.08;102057.13;5087018;28;20209;-72
2022/01/28 08:32:46;;;;;;;15.97;3.30;;;;;;;3.84;76.40;102056.25;5072413;28;20247;-72
2022/01/28 08:35:15;;;;;;;8.37;2.00;;;;;;;3.86;76.44;102067.66;5084987;28;20616;-73
2022/01/28 08:37:41;;;;;;;12.30;2.73;;;;;;;3.88;75.93;102072.91;5083595;28;20216;-73
2022/01/28 08:40:10;;;;;;;16.63;2.77;;;;;;;3.90;76.72;102081.66;5075242;28;20319;-73
2022/01/28 08:42:37;;;;;;;16.40;2.80;;;;;;;3.91;76.35;102083.41;5077127;28;20227;-71
2022/01/28 08:45:04;;;;;;;21.20;3.47;;;;;;;3.93;76.20;102086.91;5082293;28;20216;-72
2022/01/28 08:47:30;;;;;;;8.53;2.23;;;;;;;3.94;76.46;102091.28;5070927;28;20211;-71
2022/01/28 08:49:57;;;;;;;13.17;2.47;;;;;;;3.97;75.87;102092.09;5078927;28;20212;-72
2022/01/28 08:52:25;;;;;;;18.80;3.63;;;;;;;4.00;75.84;102092.03;5093277;28;20224;-72
2022/01/28 08:54:51;;;;;;;17.20;3.13;;;;;;;4.02;75.90;102100.81;5086230;28;20216;-72
2022/01/28 08:57:18;;;;;;;14.50;2.83;;;;;;;4.02;75.75;102102.56;5083408;28;20212;-72
2022/01/28 08:59:44;;;;;;;15.90;3.80;;;;;;;4.03;75.77;102099.06;5087048;28;20212;-72
2022/01/28 09:02:11;;;;;;;13.23;2.97;;;;;;;4.06;75.21;102104.28;5080904;28;20693;-72
2022/01/28 09:04:38;;;;;;;16.97;3.03;;;;;;;4.09;75.22;102101.63;5088483;28;20212;-73
2022/01/28 09:07:05;;;;;;;12.97;2.73;;;;;;;4.13;75.38;102104.16;5092986;28;20644;-72
2022/01/28 09:09:34;;;;;;;12.47;2.97;;;;;;;4.16;75.21;102106.75;5080122;28;20212;-72
2022/01/28 09:12:19;;;;;;;19.67;3.37;;;;;;;4.19;74.77;102112.00;5072471;28;20804;-72
2022/01/28 09:14:45;;;;;;;17.90;2.90;;;;;;;4.23;74.87;102107.56;5084364;28;20265;-71
2022/01/28 09:17:13;;;;;;;12.53;2.57;;;;;;;4.26;74.92;102111.94;5086838;28;20221;-72
2022/01/28 09:19:39;;;;;;;11.43;3.07;;;;;;;4.29;74.74;102122.44;5073424;28;20623;-72
2022/01/28 09:22:06;;;;;;;13.53;2.50;;;;;;;4.32;74.62;102131.16;5082920;28;20243;-71
2022/01/28 09:24:33;;;;;;;12.57;2.20;;;;;;;4.32;73.84;102138.19;5079832;28;20208;-71
2022/01/28 09:27:00;;;;;;;17.43;3.20;;;;;;;4.36;73.80;102140.78;5076782;28;20205;-70
2022/01/28 09:29:26;;;;;;;10.77;2.83;;;;;;;4.37;73.60;102150.44;5084592;28;20211;-71
2022/01/28 09:31:53;;;;;;;11.77;2.87;;;;;;;4.41;73.55;102159.19;5076692;28;20235;-72
2022/01/28 09:34:19;;;;;;;16.60;3.07;;;;;;;4.44;73.34;102164.44;5082935;28;20212;-71
2022/01/28 09:36:46;;;;;;;15.10;3.50;;;;;;;4.46;73.24;102160.88;5085000;28;20232;-73
2022/01/28 09:39:13;;;;;;;13.50;2.77;;;;;;;4.49;73.71;102175.75;5073136;28;20216;-72
2022/01/28 09:41:41;;;;;;;16.40;3.60;;;;;;;4.49;72.80;102181.03;5073540;28;20216;-71
2022/01/28 09:44:09;;;;;;;18.63;3.87;;;;;;;4.51;73.05;102195.09;5085397;28;20212;-71
2022/01/28 09:46:37;;;;;;;21.40;3.27;;;;;;;4.54;73.23;102200.31;5072126;28;20240;-71
2022/01/28 09:49:04;;;;;;;10.93;3.00;;;;;;;4.56;72.53;102210.84;5070008;28;20587;-72
2022/01/28 09:51:31;;;;;;;15.97;3.67;;;;;;;4.54;72.76;102213.50;5078480;28;20800;-71
2022/01/28 09:53:57;;;;;;;17.17;3.23;;;;;;;4.58;72.19;102209.94;5090905;28;20981;-72
2022/01/28 09:56:24;;;;;;;12.17;2.50;;;;;;;4.64;72.85;102224.84;5087419;28;20236;-72
2022/01/28 09:58:52;;;;;;;16.60;3.07;;;;;;;4.69;72.28;102228.25;5079516;28;20294;-72
2022/01/28 10:01:18;;;;;;;16.27;3.13;;;;;;;4.74;72.30;102231.72;5089272;28;20212;-71
2022/01/28 10:03:45;;;;;;;14.90;3.80;;;;;;;4.73;72.38;102225.56;5078570;28;20224;-71
2022/01/28 10:06:12;;;;;;;17.50;3.33;;;;;;;4.72;71.91;102236.13;5090454;28;20208;-72
2022/01/28 10:08:40;;;;;;;12.77;2.93;;;;;;;4.73;71.84;102233.47;5086496;28;20222;-72
2022/01/28 10:11:09;;;;;;;15.10;3.03;;;;;;;4.76;71.66;102236.09;5089278;28;20858;-72
2022/01/28 10:13:41;;;;;;;9.93;2.90;;;;;;;4.83;72.10;102235.13;5087745;28;20228;-71
2022/01/28 10:16:12;;;;;;;16.40;3.23;;;;;;;4.88;72.21;102237.66;5079314;28;20319;-72
2022/01/28 10:18:44;;;;;;;18.37;3.23;;;;;;;4.93;72.03;102235.84;5072649;28;20692;-70
2022/01/28 10:21:29;;;;;;;16.43;2.77;;;;;;;4.92;71.84;102239.38;5079273;28;20692;-72
2022/01/28 10:24:11;;;;;;;11.47;2.70;;;;;;;4.97;71.78;102241.94;5089431;28;20222;-71
2022/01/28 10:26:40;;;;;;;15.63;3.23;;;;;;;5.01;72.14;102243.66;5090059;28;20211;-72
2022/01/28 10:29:09;;;;;;;14.87;3.60;;;;;;;5.06;71.85;102233.88;5090068;28;20548;-72
2022/01/28 10:31:39;;;;;;;11.23;2.97;;;;;;;5.10;72.14;102236.47;5089237;28;20204;-70
2022/01/28 10:34:18;;;;;;;12.27;3.30;;;;;;;5.13;72.12;102239.06;5077307;28;20684;-72
2022/01/28 10:36:46;;;;;;;12.40;2.60;;;;;;;5.17;72.08;102237.25;5077234;28;20233;-72
2022/01/28 10:39:18;;;;;;;13.20;3.03;;;;;;;5.17;71.81;102217.00;5076611;28;20208;-72
2022/01/28 10:41:59;;;;;;;18.17;2.90;;;;;;;5.17;71.32;102224.03;5080365;28;20204;-69
2022/01/28 10:44:27;;;;;;;12.30;2.80;;;;;;;5.15;70.97;102221.41;5079767;28;20205;-72
2022/01/28 10:46:58;;;;;;;17.10;3.70;;;;;;;5.11;71.17;102221.47;5076001;28;20199;-72
2022/01/28 10:49:33;;;;;;;13.27;3.07;;;;;;;5.11;71.29;102229.41;5080511;28;20311;-72
2022/01/28 10:52:09;;;;;;;15.33;2.73;;;;;;;5.12;71.38;102226.75;5079525;28;20223;-73
2022/01/28 10:54:36;;;;;;;14.30;2.93;;;;;;;5.12;71.54;102224.09;5082324;28;20228;-72
2022/01/28 10:57:05;;;;;;;11.40;2.80;;;;;;;5.16;71.68;102220.53;5082727;28;20225;-70
2022/01/28 10:59:33;;;;;;;11.00;2.57;;;;;;;5.21;71.52;102217.78;5081552;28;20679;-72
2022/01/28 11:02:02;;;;;;;14.77;2.70;;;;;;;5.22;71.31;102214.25;5076138;28;20220;-72
2022/01/28 11:04:29;;;;;;;23.70;3.43;;;;;;;5.25;71.34;102219.50;5082840;28;20206;-72
2022/01/28 11:06:57;;;;;;;18.33;2.60;;;;;;;5.27;71.43;102222.97;5080276;28;20207;-70
2022/01/28 11:09:24;;;;;;;15.17;2.93;;;;;;;5.29;71.44;102223.81;5080092;28;20204;-71
2022/01/28 11:11:52;;;;;;;14.47;2.67;;;;;;;5.34;71.23;102232.56;5080371;28;20221;-72
2022/01/28 11:14:20;;;;;;;15.20;3.97;;;;;;;5.36;71.33;102227.25;5081047;28;20219;-73
2022/01/28 11:16:47;;;;;;;16.67;3.70;;;;;;;5.42;70.98;102216.56;5079328;28;20300;-71
2022/01/28 11:19:18;;;;;;;13.47;2.80;;;;;;;5.47;71.14;102231.44;5081394;28;20200;-72
2022/01/28 11:22:05;;;;;;;14.43;3.40;;;;;;;5.50;70.75;102226.13;5078578;28;20203;-72
2022/01/28 11:24:49;;;;;;;14.93;3.20;;;;;;;5.53;70.61;102234.00;5081803;28;20207;-71
2022/01/28 11:27:22;;;;;;;20.00;3.20;;;;;;;5.55;70.85;102234.81;5078223;28;20192;-73
2022/01/28 11:29:49;;;;;;;12.93;3.13;;;;;;;5.55;70.41;102242.75;5075907;28;20291;-71
2022/01/28 11:32:17;;;;;;;17.67;3.13;;;;;;;5.55;70.46;102241.91;5075183;28;20224;-71
2022/01/28 11:35:02;;;;;;;17.73;3.63;;;;;;;5.55;70.28;102242.75;5077709;28;20595;-70
2022/01/28 11:37:30;;;;;;;15.30;3.03;;;;;;;5.54;70.18;102241.03;5076536;28;20235;-70
2022/01/28 11:40:07;;;;;;;19.17;3.10;;;;;;;5.56;70.39;102248.91;5075028;28;20212;-72
2022/01/28 11:42:34;;;;;;;18.67;3.60;;;;;;;5.62;70.06;102251.44;5073194;28;20228;-72
2022/01/28 11:45:01;;;;;;;13.93;2.63;;;;;;;5.66;69.91;102252.28;5073872;28;20201;-71
2022/01/28 11:47:30;;;;;;;13.17;2.40;;;;;;;5.68;69.98;102251.34;5072236;28;20208;-72
2022/01/28 11:50:01;;;;;;;15.87;3.10;;;;;;;5.69;69.48;102253.09;5074547;28;20205;-70
2022/01/28 11:52:30;;;;;;;13.27;2.60;;;;;;;5.71;69.21;102253.94;5069411;28;20227;-69
2022/01/28 11:55:18;;;;;;;14.83;3.10;;;;;;;5.75;69.42;102257.38;5075546;28;20228;-71
2022/01/28 11:57:52;;;;;;;13.83;2.70;;;;;;;5.76;68.52;102270.56;5072549;28;20229;-70
2022/01/28 12:00:20;;;;;;;15.43;3.57;;;;;;;5.78;68.70;102271.44;5075105;28;20204;-73
2022/01/28 12:02:48;;;;;;;11.93;2.87;;;;;;;5.81;68.85;102278.44;5076735;28;20760;-71
2022/01/28 12:05:26;;;;;;;11.00;3.33;;;;;;;5.85;68.16;102285.41;5074145;28;20211;-71
2022/01/28 12:07:55;;;;;;;9.80;2.50;;;;;;;5.86;68.14;102280.09;5074115;28;20666;-70
2022/01/28 12:10:22;;;;;;;15.60;3.30;;;;;;;5.92;67.77;102279.13;5073076;28;20193;-74
2022/01/28 12:13:01;;;;;;;14.77;3.27;;;;;;;5.97;67.76;102284.34;5076708;28;20227;-71
2022/01/28 12:15:30;;;;;;;15.43;2.80;;;;;;;5.97;67.37;102290.50;5073446;28;20205;-72
2022/01/28 12:18:11;;;;;;;14.57;3.90;;;;;;;5.94;66.92;102301.13;5077580;28;20743;-71
2022/01/28 12:20:44;;;;;;;15.07;3.07;;;;;;;5.99;67.26;102294.00;5071820;28;20220;-72
2022/01/28 12:23:38;;;;;;;18.13;3.10;;;;;;;6.01;66.83;102301.91;5075042;28;20248;-72